Dallas, Texas
Traffic Map
Current Weather Conditions
Dallas, Texas
Few Clouds
Few Clouds
18°
Feels Like: 18°
Wind Chill: 18° Ceiling: Unl
Heat Index: 18° Visibility: 10mi
Dew Point: 13° Wind: 14mph
Humidity: 70% Direction: 160° (SSE)
Pressure: 30.03in Gusts: 0mph
Raw Report DataKDAL 210153Z 16012KT 10SM FEW050 18/13 A3003 RMK AO2 SLP165 T01830128
Traffic Incident Summary
Active as of:
Severity:
Category:
InformationThere was an issue retrieving the traffic information for this location. Please try a different location or try again shortly.
Advertisements
Track Severe Weather on mobile